sensor_id;sensor_type;location;lat;lon;timestamp;pressure;altitude;pressure_sealevel;temperature;humidity
50672;BME280;46021;55.882;37.654;2023-02-11T00:01:20;99397.91;;;-3.18;72.10
50672;BME280;46021;55.882;37.654;2023-02-11T00:03:49;99401.50;;;-3.06;71.18
50672;BME280;46021;55.882;37.654;2023-02-11T00:06:17;99400.66;;;-3.07;71.17
50672;BME280;46021;55.882;37.654;2023-02-11T00:08:44;99398.19;;;-3.02;71.88
50672;BME280;46021;55.882;37.654;2023-02-11T00:11:12;99394.63;;;-3.10;71.39
50672;BME280;46021;55.882;37.654;2023-02-11T00:13:40;99404.66;;;-3.20;71.31
50672;BME280;46021;55.882;37.654;2023-02-11T00:16:08;99410.63;;;-3.19;71.22
50672;BME280;46021;55.882;37.654;2023-02-11T00:18:36;99404.75;;;-3.15;72.04
50672;BME280;46021;55.882;37.654;2023-02-11T00:21:10;99403.69;;;-3.26;71.17
50672;BME280;46021;55.882;37.654;2023-02-11T00:23:38;99405.44;;;-3.24;72.18
50672;BME280;46021;55.882;37.654;2023-02-11T00:26:11;99423.34;;;-3.21;71.24
50672;BME280;46021;55.882;37.654;2023-02-11T00:28:40;99422.34;;;-3.27;71.71
50672;BME280;46021;55.882;37.654;2023-02-11T00:31:09;99404.38;;;-3.35;71.54
50672;BME280;46021;55.882;37.654;2023-02-11T00:33:37;99414.56;;;-3.35;71.61
50672;BME280;46021;55.882;37.654;2023-02-11T00:36:05;99411.25;;;-3.31;71.62
50672;BME280;46021;55.882;37.654;2023-02-11T00:38:34;99411.00;;;-3.43;71.90
50672;BME280;46021;55.882;37.654;2023-02-11T00:41:02;99408.38;;;-3.46;72.05
50672;BME280;46021;55.882;37.654;2023-02-11T00:43:30;99408.25;;;-3.54;72.54
50672;BME280;46021;55.882;37.654;2023-02-11T00:45:57;99400.56;;;-3.56;73.18
50672;BME280;46021;55.882;37.654;2023-02-11T00:48:25;99401.31;;;-3.60;72.59
50672;BME280;46021;55.882;37.654;2023-02-11T00:50:52;99408.09;;;-3.62;72.88
50672;BME280;46021;55.882;37.654;2023-02-11T00:53:19;99413.94;;;-3.66;72.21
50672;BME280;46021;55.882;37.654;2023-02-11T00:55:47;99402.75;;;-3.74;72.06
50672;BME280;46021;55.882;37.654;2023-02-11T00:58:15;99421.47;;;-3.70;72.32
50672;BME280;46021;55.882;37.654;2023-02-11T01:00:42;99412.16;;;-3.70;73.31
50672;BME280;46021;55.882;37.654;2023-02-11T01:03:09;99418.84;;;-3.75;72.35
50672;BME280;46021;55.882;37.654;2023-02-11T01:05:36;99420.53;;;-3.76;73.12
50672;BME280;46021;55.882;37.654;2023-02-11T01:08:03;99424.66;;;-3.81;73.33
50672;BME280;46021;55.882;37.654;2023-02-11T01:10:31;99425.31;;;-3.89;73.41
50672;BME280;46021;55.882;37.654;2023-02-11T01:13:00;99432.06;;;-3.92;74.01
50672;BME280;46021;55.882;37.654;2023-02-11T01:15:27;99426.22;;;-3.87;73.60
50672;BME280;46021;55.882;37.654;2023-02-11T01:17:55;99429.69;;;-3.85;72.53
50672;BME280;46021;55.882;37.654;2023-02-11T01:20:24;99438.75;;;-3.95;73.69
50672;BME280;46021;55.882;37.654;2023-02-11T01:22:52;99445.47;;;-4.00;73.42
50672;BME280;46021;55.882;37.654;2023-02-11T01:25:19;99430.97;;;-4.03;74.10
50672;BME280;46021;55.882;37.654;2023-02-11T01:27:46;99441.91;;;-4.07;73.78
50672;BME280;46021;55.882;37.654;2023-02-11T01:30:15;99440.19;;;-4.08;73.93
50672;BME280;46021;55.882;37.654;2023-02-11T01:32:42;99452.16;;;-4.04;73.97
50672;BME280;46021;55.882;37.654;2023-02-11T01:35:09;99452.94;;;-4.08;73.09
50672;BME280;46021;55.882;37.654;2023-02-11T01:37:36;99446.00;;;-4.14;73.89
50672;BME280;46021;55.882;37.654;2023-02-11T01:40:06;99450.38;;;-4.08;73.66
50672;BME280;46021;55.882;37.654;2023-02-11T01:42:33;99454.41;;;-4.16;74.19
50672;BME280;46021;55.882;37.654;2023-02-11T01:48:08;99455.16;;;-4.20;73.86
50672;BME280;46021;55.882;37.654;2023-02-11T01:50:39;99444.09;;;-4.22;74.06
50672;BME280;46021;55.882;37.654;2023-02-11T01:53:07;99448.38;;;-4.20;73.83
50672;BME280;46021;55.882;37.654;2023-02-11T01:55:50;99443.19;;;-4.24;73.64
50672;BME280;46021;55.882;37.654;2023-02-11T01:58:37;99431.22;;;-4.28;73.58
50672;BME280;46021;55.882;37.654;2023-02-11T02:01:06;99441.47;;;-4.25;73.54
50672;BME280;46021;55.882;37.654;2023-02-11T02:03:38;99447.44;;;-4.25;73.06
50672;BME280;46021;55.882;37.654;2023-02-11T02:06:13;99448.91;;;-4.33;73.27
50672;BME280;46021;55.882;37.654;2023-02-11T02:08:46;99453.28;;;-4.27;72.90
50672;BME280;46021;55.882;37.654;2023-02-11T02:11:17;99445.56;;;-4.32;73.12
50672;BME280;46021;55.882;37.654;2023-02-11T02:13:45;99447.63;;;-4.17;73.71
50672;BME280;46021;55.882;37.654;2023-02-11T02:16:14;99451.91;;;-4.15;73.91
50672;BME280;46021;55.882;37.654;2023-02-11T02:18:48;99448.78;;;-4.03;72.94
50672;BME280;46021;55.882;37.654;2023-02-11T02:24:50;99459.28;;;-3.89;72.90
50672;BME280;46021;55.882;37.654;2023-02-11T02:27:35;99459.50;;;-3.78;71.90
50672;BME280;46021;55.882;37.654;2023-02-11T02:33:21;99456.28;;;-3.71;71.10
50672;BME280;46021;55.882;37.654;2023-02-11T02:35:56;99458.03;;;-3.70;71.46
50672;BME280;46021;55.882;37.654;2023-02-11T02:38:29;99451.38;;;-3.62;71.39
50672;BME280;46021;55.882;37.654;2023-02-11T02:41:01;99457.34;;;-3.63;70.36
50672;BME280;46021;55.882;37.654;2023-02-11T02:43:30;99460.78;;;-3.61;70.21
50672;BME280;46021;55.882;37.654;2023-02-11T02:46:13;99460.00;;;-3.57;70.96
50672;BME280;46021;55.882;37.654;2023-02-11T02:48:43;99461.63;;;-3.60;71.01
50672;BME280;46021;55.882;37.654;2023-02-11T02:51:20;99451.38;;;-3.62;70.44
50672;BME280;46021;55.882;37.654;2023-02-11T02:53:59;99454.00;;;-3.59;70.11
50672;BME280;46021;55.882;37.654;2023-02-11T02:56:36;99453.94;;;-3.62;70.61
50672;BME280;46021;55.882;37.654;2023-02-11T02:59:21;99452.41;;;-3.54;70.09
50672;BME280;46021;55.882;37.654;2023-02-11T03:01:59;99447.31;;;-3.54;69.89
50672;BME280;46021;55.882;37.654;2023-02-11T03:04:37;99442.28;;;-3.50;69.54
50672;BME280;46021;55.882;37.654;2023-02-11T03:07:11;99446.34;;;-3.60;69.68
50672;BME280;46021;55.882;37.654;2023-02-11T03:09:50;99436.03;;;-3.66;68.64
50672;BME280;46021;55.882;37.654;2023-02-11T03:12:20;99441.84;;;-3.72;68.80
50672;BME280;46021;55.882;37.654;2023-02-11T03:14:50;99437.53;;;-3.75;69.85
50672;BME280;46021;55.882;37.654;2023-02-11T03:17:18;99441.69;;;-3.80;69.20
50672;BME280;46021;55.882;37.654;2023-02-11T03:19:49;99432.88;;;-3.94;69.50
50672;BME280;46021;55.882;37.654;2023-02-11T03:22:21;99448.00;;;-4.00;70.05
50672;BME280;46021;55.882;37.654;2023-02-11T03:24:51;99445.16;;;-4.13;70.91
50672;BME280;46021;55.882;37.654;2023-02-11T03:27:20;99442.75;;;-4.06;69.87
50672;BME280;46021;55.882;37.654;2023-02-11T03:29:53;99442.03;;;-4.01;71.00
50672;BME280;46021;55.882;37.654;2023-02-11T03:32:27;99435.88;;;-4.11;70.11
50672;BME280;46021;55.882;37.654;2023-02-11T03:34:59;99439.97;;;-4.17;70.44
50672;BME280;46021;55.882;37.654;2023-02-11T03:37:31;99443.41;;;-4.15;70.97
50672;BME280;46021;55.882;37.654;2023-02-11T03:40:03;99437.47;;;-4.16;71.30
50672;BME280;46021;55.882;37.654;2023-02-11T03:42:34;99434.06;;;-4.16;70.78
50672;BME280;46021;55.882;37.654;2023-02-11T03:45:05;99440.94;;;-4.12;71.01
50672;BME280;46021;55.882;37.654;2023-02-11T03:47:35;99434.75;;;-4.23;71.21
50672;BME280;46021;55.882;37.654;2023-02-11T03:50:09;99445.78;;;-4.23;71.47
50672;BME280;46021;55.882;37.654;2023-02-11T03:52:37;99427.94;;;-4.24;72.20
50672;BME280;46021;55.882;37.654;2023-02-11T03:55:08;99434.75;;;-4.23;72.11
50672;BME280;46021;55.882;37.654;2023-02-11T03:57:36;99434.06;;;-4.16;71.31
50672;BME280;46021;55.882;37.654;2023-02-11T04:00:05;99433.16;;;-4.18;71.64
50672;BME280;46021;55.882;37.654;2023-02-11T04:02:40;99426.50;;;-4.13;71.63
50672;BME280;46021;55.882;37.654;2023-02-11T04:05:12;99435.84;;;-4.12;71.52
50672;BME280;46021;55.882;37.654;2023-02-11T04:07:40;99437.47;;;-4.16;71.24
50672;BME280;46021;55.882;37.654;2023-02-11T04:10:07;99429.81;;;-4.17;70.77
50672;BME280;46021;55.882;37.654;2023-02-11T04:12:34;99416.19;;;-4.19;70.68
50672;BME280;46021;55.882;37.654;2023-02-11T04:15:01;99426.19;;;-4.25;71.92
50672;BME280;46021;55.882;37.654;2023-02-11T04:17:29;99427.25;;;-4.17;71.44
50672;BME280;46021;55.882;37.654;2023-02-11T04:19:56;99428.75;;;-4.25;70.68
50672;BME280;46021;55.882;37.654;2023-02-11T04:22:24;99441.47;;;-4.25;71.69
50672;BME280;46021;55.882;37.654;2023-02-11T04:24:51;99432.00;;;-4.31;71.58
50672;BME280;46021;55.882;37.654;2023-02-11T04:27:18;99430.16;;;-4.37;71.67
50672;BME280;46021;55.882;37.654;2023-02-11T04:29:45;99440.97;;;-4.47;71.86
50672;BME280;46021;55.882;37.654;2023-02-11T04:32:13;99429.88;;;-4.49;71.40
50672;BME280;46021;55.882;37.654;2023-02-11T04:34:40;99424.81;;;-4.49;71.80
50672;BME280;46021;55.882;37.654;2023-02-11T04:37:07;99419.72;;;-4.49;71.66
50672;BME280;46021;55.882;37.654;2023-02-11T04:39:35;99423.78;;;-4.57;70.81
50672;BME280;46021;55.882;37.654;2023-02-11T04:42:03;99433.75;;;-4.63;71.26
50672;BME280;46021;55.882;37.654;2023-02-11T04:44:30;99422.78;;;-4.62;71.87
50672;BME280;46021;55.882;37.654;2023-02-11T04:46:57;99428.38;;;-4.76;71.31
50672;BME280;46021;55.882;37.654;2023-02-11T04:49:24;99428.38;;;-4.76;71.69
50672;BME280;46021;55.882;37.654;2023-02-11T04:51:51;99425.94;;;-4.71;71.64
50672;BME280;46021;55.882;37.654;2023-02-11T04:54:19;99436.13;;;-4.71;71.80
50672;BME280;46021;55.882;37.654;2023-02-11T04:56:48;99436.06;;;-4.73;71.34
50672;BME280;46021;55.882;37.654;2023-02-11T04:59:15;99434.38;;;-4.74;71.56
50672;BME280;46021;55.882;37.654;2023-02-11T05:01:42;99441.84;;;-4.80;71.26
50672;BME280;46021;55.882;37.654;2023-02-11T05:04:09;99434.22;;;-4.80;71.56
50672;BME280;46021;55.882;37.654;2023-02-11T05:06:37;99443.50;;;-4.80;71.35
50672;BME280;46021;55.882;37.654;2023-02-11T05:09:04;99438.22;;;-4.88;72.32
50672;BME280;46021;55.882;37.654;2023-02-11T05:11:31;99437.38;;;-4.88;71.82
50672;BME280;46021;55.882;37.654;2023-02-11T05:14:00;99438.81;;;-4.98;72.10
50672;BME280;46021;55.882;37.654;2023-02-11T05:16:28;99434.72;;;-4.93;71.88
50672;BME280;46021;55.882;37.654;2023-02-11T05:18:55;99439.81;;;-4.93;72.19
50672;BME280;46021;55.882;37.654;2023-02-11T05:21:23;99439.72;;;-4.96;71.72
50672;BME280;46021;55.882;37.654;2023-02-11T05:23:50;99439.81;;;-4.93;72.04
50672;BME280;46021;55.882;37.654;2023-02-11T05:26:17;99437.13;;;-4.98;71.80
50672;BME280;46021;55.882;37.654;2023-02-11T05:28:44;99435.53;;;-4.94;71.92
50672;BME280;46021;55.882;37.654;2023-02-11T05:31:12;99435.63;;;-4.91;72.16
50672;BME280;46021;55.882;37.654;2023-02-11T05:33:41;99437.47;;;-4.85;71.79
50672;BME280;46021;55.882;37.654;2023-02-11T05:36:10;99436.53;;;-4.89;71.65
50672;BME280;46021;55.882;37.654;2023-02-11T05:38:38;99430.78;;;-4.80;71.66
50672;BME280;46021;55.882;37.654;2023-02-11T05:41:07;99436.81;;;-4.77;71.92
50672;BME280;46021;55.882;37.654;2023-02-11T05:43:34;99430.09;;;-4.75;71.99
50672;BME280;46021;55.882;37.654;2023-02-11T05:46:01;99438.63;;;-4.73;71.90
50672;BME280;46021;55.882;37.654;2023-02-11T05:48:30;99434.31;;;-4.75;71.63
50672;BME280;46021;55.882;37.654;2023-02-11T05:50:57;99431.31;;;-4.60;71.01
50672;BME280;46021;55.882;37.654;2023-02-11T05:53:32;99426.41;;;-4.53;71.13
50672;BME280;46021;55.882;37.654;2023-02-11T05:55:59;99430.84;;;-4.45;71.60
50672;BME280;46021;55.882;37.654;2023-02-11T05:58:26;99427.50;;;-4.43;70.20
50672;BME280;46021;55.882;37.654;2023-02-11T06:00:54;99428.56;;;-4.33;70.91
50672;BME280;46021;55.882;37.654;2023-02-11T06:03:21;99422.72;;;-4.31;70.80
50672;BME280;46021;55.882;37.654;2023-02-11T06:05:50;99430.31;;;-4.32;70.33
50672;BME280;46021;55.882;37.654;2023-02-11T06:08:17;99426.97;;;-4.29;71.14
50672;BME280;46021;55.882;37.654;2023-02-11T06:10:44;99429.44;;;-4.33;71.30
50672;BME280;46021;55.882;37.654;2023-02-11T06:13:11;99432.88;;;-4.31;70.39
50672;BME280;46021;55.882;37.654;2023-02-11T06:15:38;99438.19;;;-4.21;69.74
50672;BME280;46021;55.882;37.654;2023-02-11T06:18:06;99431.22;;;-4.28;70.29
50672;BME280;46021;55.882;37.654;2023-02-11T06:20:34;99415.94;;;-4.30;70.33
50672;BME280;46021;55.882;37.654;2023-02-11T06:23:03;99429.53;;;-4.28;70.13
50672;BME280;46021;55.882;37.654;2023-02-11T06:25:30;99424.34;;;-4.33;70.71
50672;BME280;46021;55.882;37.654;2023-02-11T06:27:57;99426.06;;;-4.32;70.27
50672;BME280;46021;55.882;37.654;2023-02-11T06:30:24;99426.19;;;-4.25;70.13
50672;BME280;46021;55.882;37.654;2023-02-11T06:32:51;99428.03;;;-4.20;70.16
50672;BME280;46021;55.882;37.654;2023-02-11T06:35:19;99419.84;;;-4.08;69.52
50672;BME280;46021;55.882;37.654;2023-02-11T06:37:46;99429.31;;;-4.01;69.05
50672;BME280;46021;55.882;37.654;2023-02-11T06:40:16;99418.19;;;-4.06;69.81
50672;BME280;46021;55.882;37.654;2023-02-11T06:42:43;99424.38;;;-3.95;69.18
50672;BME280;46021;55.882;37.654;2023-02-11T06:45:11;99418.91;;;-4.12;69.11
50672;BME280;46021;55.882;37.654;2023-02-11T06:47:39;99416.22;;;-4.16;69.88
50672;BME280;46021;55.882;37.654;2023-02-11T06:50:09;99413.09;;;-4.06;69.37
50672;BME280;46021;55.882;37.654;2023-02-11T06:52:36;99411.44;;;-4.04;69.09
50672;BME280;46021;55.882;37.654;2023-02-11T06:55:04;99425.75;;;-4.09;69.46
50672;BME280;46021;55.882;37.654;2023-02-11T06:57:33;99425.53;;;-4.18;69.86
50672;BME280;46021;55.882;37.654;2023-02-11T07:00:00;99432.63;;;-4.05;68.73
50672;BME280;46021;55.882;37.654;2023-02-11T07:02:29;99431.81;;;-4.04;69.04
50672;BME280;46021;55.882;37.654;2023-02-11T07:04:56;99422.00;;;-3.87;69.19
50672;BME280;46021;55.882;37.654;2023-02-11T07:07:23;99432.34;;;-3.79;68.64
50672;BME280;46021;55.882;37.654;2023-02-11T07:09:50;99426.41;;;-3.78;68.38
50672;BME280;46021;55.882;37.654;2023-02-11T07:12:17;99433.91;;;-3.84;69.26
50672;BME280;46021;55.882;37.654;2023-02-11T07:14:45;99430.59;;;-3.80;68.72
50672;BME280;46021;55.882;37.654;2023-02-11T07:17:13;99429.09;;;-3.72;68.71
50672;BME280;46021;55.882;37.654;2023-02-11T07:19:40;99420.13;;;-3.55;69.12
50672;BME280;46021;55.882;37.654;2023-02-11T07:22:07;99421.88;;;-3.52;67.82
50672;BME280;46021;55.882;37.654;2023-02-11T07:24:34;99419.91;;;-3.65;69.29
50672;BME280;46021;55.882;37.654;2023-02-11T07:27:01;99419.03;;;-3.66;69.17
50672;BME280;46021;55.882;37.654;2023-02-11T07:29:28;99403.94;;;-3.57;68.41
50672;BME280;46021;55.882;37.654;2023-02-11T07:31:56;99397.84;;;-3.63;68.85
50672;BME280;46021;55.882;37.654;2023-02-11T07:34:23;99399.75;;;-3.55;68.71
50672;BME280;46021;55.882;37.654;2023-02-11T07:36:50;99404.75;;;-3.58;68.75
50672;BME280;46021;55.882;37.654;2023-02-11T07:39:17;99404.22;;;-3.43;68.88
50672;BME280;46021;55.882;37.654;2023-02-11T07:41:46;99390.81;;;-3.34;68.45
50672;BME280;46021;55.882;37.654;2023-02-11T07:44:14;99399.28;;;-3.35;68.80
50672;BME280;46021;55.882;37.654;2023-02-11T07:46:41;99398.03;;;-3.11;67.09
50672;BME280;46021;55.882;37.654;2023-02-11T07:49:11;99392.97;;;-3.08;68.57
50672;BME280;46021;55.882;37.654;2023-02-11T07:51:38;99381.00;;;-3.13;67.57
50672;BME280;46021;55.882;37.654;2023-02-11T07:54:05;99389.50;;;-3.14;67.44
50672;BME280;46021;55.882;37.654;2023-02-11T07:56:32;99387.22;;;-2.98;66.79
50672;BME280;46021;55.882;37.654;2023-02-11T07:59:01;99384.84;;;-2.89;66.69
50672;BME280;46021;55.882;37.654;2023-02-11T08:01:29;99375.25;;;-3.01;66.52
50672;BME280;46021;55.882;37.654;2023-02-11T08:03:58;99379.66;;;-2.92;67.43
50672;BME280;46021;55.882;37.654;2023-02-11T08:06:29;99382.06;;;-3.01;66.67
50672;BME280;46021;55.882;37.654;2023-02-11T08:08:57;99375.41;;;-2.91;66.42
50672;BME280;46021;55.882;37.654;2023-02-11T08:11:27;99382.31;;;-2.86;66.90
50672;BME280;46021;55.882;37.654;2023-02-11T08:13:55;99367.84;;;-2.88;66.53
50672;BME280;46021;55.882;37.654;2023-02-11T08:16:24;99385.03;;;-2.77;67.19
50672;BME280;46021;55.882;37.654;2023-02-11T08:18:52;99368.75;;;-2.85;65.78
50672;BME280;46021;55.882;37.654;2023-02-11T08:21:22;99381.38;;;-2.92;66.31
50672;BME280;46021;55.882;37.654;2023-02-11T08:23:50;99370.16;;;-3.01;66.00
50672;BME280;46021;55.882;37.654;2023-02-11T08:26:19;99372.75;;;-2.99;65.27
50672;BME280;46021;55.882;37.654;2023-02-11T08:28:48;99363.47;;;-2.96;66.04
50672;BME280;46021;55.882;37.654;2023-02-11T08:31:17;99364.31;;;-2.95;65.11
50672;BME280;46021;55.882;37.654;2023-02-11T08:33:45;99367.16;;;-2.78;65.26
50672;BME280;46021;55.882;37.654;2023-02-11T08:36:14;99363.09;;;-2.68;65.78
50672;BME280;46021;55.882;37.654;2023-02-11T08:38:42;99359.81;;;-2.58;65.28
50672;BME280;46021;55.882;37.654;2023-02-11T08:41:11;99355.91;;;-2.38;65.61
50672;BME280;46021;55.882;37.654;2023-02-11T08:43:39;99347.13;;;-2.53;64.28
50672;BME280;46021;55.882;37.654;2023-02-11T08:46:08;99341.47;;;-2.87;64.73
50672;BME280;46021;55.882;37.654;2023-02-11T08:48:35;99342.06;;;-3.04;64.33
50672;BME280;46021;55.882;37.654;2023-02-11T08:51:05;99335.88;;;-3.18;65.47
50672;BME280;46021;55.882;37.654;2023-02-11T08:53:33;99324.44;;;-3.40;65.69
50672;BME280;46021;55.882;37.654;2023-02-11T08:56:00;99317.72;;;-3.35;64.97
50672;BME280;46021;55.882;37.654;2023-02-11T08:58:28;99315.03;;;-3.43;65.94
50672;BME280;46021;55.882;37.654;2023-02-11T09:00:55;99306.56;;;-3.42;66.87
50672;BME280;46021;55.882;37.654;2023-02-11T09:03:22;99309.03;;;-3.46;65.60
50672;BME280;46021;55.882;37.654;2023-02-11T09:05:50;99313.06;;;-3.58;65.91
50672;BME280;46021;55.882;37.654;2023-02-11T09:08:19;99300.28;;;-3.59;66.27
50672;BME280;46021;55.882;37.654;2023-02-11T09:10:46;99308.03;;;-3.55;67.56
50672;BME280;46021;55.882;37.654;2023-02-11T09:13:13;99274.03;;;-3.57;66.96
50672;BME280;46021;55.882;37.654;2023-02-11T09:15:45;99271.47;;;-3.57;66.66
50672;BME280;46021;55.882;37.654;2023-02-11T09:18:12;99262.41;;;-3.41;66.71
50672;BME280;46021;55.882;37.654;2023-02-11T09:20:40;99266.81;;;-3.32;66.97
50672;BME280;46021;55.882;37.654;2023-02-11T09:23:08;99259.88;;;-3.39;66.75
50672;BME280;46021;55.882;37.654;2023-02-11T09:25:38;99259.88;;;-3.39;66.13
50672;BME280;46021;55.882;37.654;2023-02-11T09:28:05;99235.38;;;-3.31;67.19
50672;BME280;46021;55.882;37.654;2023-02-11T09:30:32;99217.53;;;-3.31;65.98
50672;BME280;46021;55.882;37.654;2023-02-11T09:33:01;99219.28;;;-3.30;65.97
50672;BME280;46021;55.882;37.654;2023-02-11T09:35:28;99217.41;;;-3.40;67.04
50672;BME280;46021;55.882;37.654;2023-02-11T09:37:55;99217.44;;;-3.37;67.05
50672;BME280;46021;55.882;37.654;2023-02-11T09:40:22;99227.47;;;-3.46;66.69
50672;BME280;46021;55.882;37.654;2023-02-11T09:42:53;99223.13;;;-3.52;67.97
50672;BME280;46021;55.882;37.654;2023-02-11T09:45:24;99225.56;;;-3.60;67.92
50672;BME280;46021;55.882;37.654;2023-02-11T09:47:55;99221.34;;;-3.58;67.80
50672;BME280;46021;55.882;37.654;2023-02-11T09:50:29;99222.06;;;-3.65;69.24
50672;BME280;46021;55.882;37.654;2023-02-11T09:52:59;99214.59;;;-3.57;68.06
50672;BME280;46021;55.882;37.654;2023-02-11T09:55:30;99206.94;;;-3.56;67.60
50672;BME280;46021;55.882;37.654;2023-02-11T09:58:01;99209.78;;;-3.39;67.66
50672;BME280;46021;55.882;37.654;2023-02-11T10:00:32;99199.56;;;-3.42;67.69
50672;BME280;46021;55.882;37.654;2023-02-11T10:03:19;99196.00;;;-3.50;68.19
50672;BME280;46021;55.882;37.654;2023-02-11T10:06:10;99190.84;;;-3.55;69.10
50672;BME280;46021;55.882;37.654;2023-02-11T10:08:48;99200.09;;;-3.60;68.77
50672;BME280;46021;55.882;37.654;2023-02-11T10:11:20;99195.97;;;-3.53;68.30
50672;BME280;46021;55.882;37.654;2023-02-11T10:13:56;99207.72;;;-3.60;68.32
50672;BME280;46021;55.882;37.654;2023-02-11T10:16:40;99174.50;;;-3.66;69.24
50672;BME280;46021;55.882;37.654;2023-02-11T10:19:32;99171.94;;;-3.67;68.99
50672;BME280;46021;55.882;37.654;2023-02-11T10:22:07;99182.13;;;-3.67;69.92
50672;BME280;46021;55.882;37.654;2023-02-11T10:24:36;99179.59;;;-3.66;69.05
50672;BME280;46021;55.882;37.654;2023-02-11T10:27:11;99159.00;;;-3.78;69.27
50672;BME280;46021;55.882;37.654;2023-02-11T10:29:45;99159.88;;;-3.78;69.45
50672;BME280;46021;55.882;37.654;2023-02-11T10:32:25;99170.84;;;-3.80;70.47
50672;BME280;46021;55.882;37.654;2023-02-11T10:34:58;99155.72;;;-3.74;70.15
50672;BME280;46021;55.882;37.654;2023-02-11T10:37:29;99141.19;;;-3.80;70.29
50672;BME280;46021;55.882;37.654;2023-02-11T10:39:56;99140.50;;;-3.69;70.86
50672;BME280;46021;55.882;37.654;2023-02-11T10:42:29;99138.16;;;-3.57;70.74
50672;BME280;46021;55.882;37.654;2023-02-11T10:45:01;99134.91;;;-3.47;70.25
50672;BME280;46021;55.882;37.654;2023-02-11T10:47:34;99139.19;;;-3.44;69.21
50672;BME280;46021;55.882;37.654;2023-02-11T10:50:17;99119.56;;;-3.51;70.04
50672;BME280;46021;55.882;37.654;2023-02-11T10:52:46;99118.00;;;-3.42;69.52
50672;BME280;46021;55.882;37.654;2023-02-11T10:55:15;99104.41;;;-3.44;69.98
50672;BME280;46021;55.882;37.654;2023-02-11T10:57:53;99091.75;;;-3.36;69.68
50672;BME280;46021;55.882;37.654;2023-02-11T11:00:29;99119.09;;;-3.26;70.05
50672;BME280;46021;55.882;37.654;2023-02-11T11:03:00;99095.25;;;-3.28;70.08
50672;BME280;46021;55.882;37.654;2023-02-11T11:05:30;99091.75;;;-3.36;69.61
50672;BME280;46021;55.882;37.654;2023-02-11T11:08:01;99088.22;;;-3.44;69.59
50672;BME280;46021;55.882;37.654;2023-02-11T11:10:35;99090.03;;;-3.37;69.04
50672;BME280;46021;55.882;37.654;2023-02-11T11:13:24;99079.06;;;-3.31;68.84
50672;BME280;46021;55.882;37.654;2023-02-11T11:16:22;99079.03;;;-3.35;69.82
50672;BME280;46021;55.882;37.654;2023-02-11T11:18:52;99062.09;;;-3.33;69.53
50672;BME280;46021;55.882;37.654;2023-02-11T11:21:22;99063.88;;;-3.24;68.35
50672;BME280;46021;55.882;37.654;2023-02-11T11:23:55;99054.50;;;-3.26;69.64
50672;BME280;46021;55.882;37.654;2023-02-11T11:26:24;99044.47;;;-3.14;69.21
50672;BME280;46021;55.882;37.654;2023-02-11T11:28:57;99024.03;;;-3.19;69.24
50672;BME280;46021;55.882;37.654;2023-02-11T11:31:28;99023.38;;;-3.01;68.97
50672;BME280;46021;55.882;37.654;2023-02-11T11:33:58;99039.44;;;-3.09;68.18
50672;BME280;46021;55.882;37.654;2023-02-11T11:36:33;99009.66;;;-3.12;68.36
50672;BME280;46021;55.882;37.654;2023-02-11T11:39:16;99006.38;;;-3.02;68.67
50672;BME280;46021;55.882;37.654;2023-02-11T11:41:55;98993.63;;;-3.03;67.55
50672;BME280;46021;55.882;37.654;2023-02-11T11:44:27;98996.16;;;-3.05;67.86
50672;BME280;46021;55.882;37.654;2023-02-11T11:47:19;98987.53;;;-3.15;67.54
50672;BME280;46021;55.882;37.654;2023-02-11T11:49:54;98988.41;;;-3.16;67.10
50672;BME280;46021;55.882;37.654;2023-02-11T11:52:36;98983.19;;;-3.25;68.10
50672;BME280;46021;55.882;37.654;2023-02-11T11:55:14;98975.59;;;-3.19;67.55
50672;BME280;46021;55.882;37.654;2023-02-11T11:57:43;98969.66;;;-3.18;68.32
50672;BME280;46021;55.882;37.654;2023-02-11T12:00:15;98958.75;;;-3.06;67.44
50672;BME280;46021;55.882;37.654;2023-02-11T12:03:05;98959.56;;;-3.08;67.73
50672;BME280;46021;55.882;37.654;2023-02-11T12:05:41;98951.22;;;-2.97;68.11
50672;BME280;46021;55.882;37.654;2023-02-11T12:08:15;98955.34;;;-3.05;67.57
50672;BME280;46021;55.882;37.654;2023-02-11T12:10:57;98954.47;;;-3.10;67.09
50672;BME280;46021;55.882;37.654;2023-02-11T12:13:41;98950.19;;;-3.11;68.02
50672;BME280;46021;55.882;37.654;2023-02-11T12:16:20;98937.47;;;-3.09;67.78
50672;BME280;46021;55.882;37.654;2023-02-11T12:19:13;98951.91;;;-3.11;67.15
50672;BME280;46021;55.882;37.654;2023-02-11T12:21:50;98927.91;;;-3.30;66.46
50672;BME280;46021;55.882;37.654;2023-02-11T12:24:35;98940.63;;;-3.32;65.85
50672;BME280;46021;55.882;37.654;2023-02-11T12:27:14;98928.84;;;-3.21;67.05
50672;BME280;46021;55.882;37.654;2023-02-11T12:29:54;98927.28;;;-3.09;66.87
50672;BME280;46021;55.882;37.654;2023-02-11T12:32:30;98920.63;;;-2.97;66.31
50672;BME280;46021;55.882;37.654;2023-02-11T12:35:16;98932.22;;;-3.22;66.02
50672;BME280;46021;55.882;37.654;2023-02-11T12:38:03;98910.16;;;-3.20;66.28
50672;BME280;46021;55.882;37.654;2023-02-11T12:40:57;98886.47;;;-3.11;65.13
50672;BME280;46021;55.882;37.654;2023-02-11T12:43:32;98901.78;;;-3.06;65.19
50672;BME280;46021;55.882;37.654;2023-02-11T12:46:13;98886.34;;;-3.25;65.49
50672;BME280;46021;55.882;37.654;2023-02-11T12:49:15;98882.91;;;-3.27;65.66
50672;BME280;46021;55.882;37.654;2023-02-11T12:51:58;98888.84;;;-3.26;67.36
50672;BME280;46021;55.882;37.654;2023-02-11T12:54:31;98887.13;;;-3.30;67.43
50672;BME280;46021;55.882;37.654;2023-02-11T12:57:05;98886.03;;;-3.51;66.73
50672;BME280;46021;55.882;37.654;2023-02-11T12:59:46;98880.97;;;-3.49;66.09
50672;BME280;46021;55.882;37.654;2023-02-11T13:02:26;98864.81;;;-3.50;67.88
50672;BME280;46021;55.882;37.654;2023-02-11T13:04:58;98859.69;;;-3.53;66.91
50672;BME280;46021;55.882;37.654;2023-02-11T13:07:29;98852.06;;;-3.50;67.13
50672;BME280;46021;55.882;37.654;2023-02-11T13:10:04;98847.75;;;-3.56;67.74
50672;BME280;46021;55.882;37.654;2023-02-11T13:12:34;98854.47;;;-3.64;67.36
50672;BME280;46021;55.882;37.654;2023-02-11T13:15:21;98842.66;;;-3.56;67.71
50672;BME280;46021;55.882;37.654;2023-02-11T13:17:55;98828.16;;;-3.63;68.12
50672;BME280;46021;55.882;37.654;2023-02-11T13:20:33;98823.97;;;-3.58;68.27